createdAt,value
2019-04-16T00:00:28.403Z,17.00
2019-04-16T00:02:56.919Z,17.23
2019-04-16T00:05:28.461Z,17.40
2019-04-16T00:07:59.679Z,17.07
2019-04-16T00:10:39.713Z,18.20
2019-04-16T00:13:25.851Z,17.47
2019-04-16T00:15:56.359Z,17.00
2019-04-16T00:18:24.566Z,17.27
2019-04-16T00:21:12.023Z,16.67
2019-04-16T00:24:11.556Z,18.13
2019-04-16T00:26:39.690Z,17.27
2019-04-16T00:29:07.593Z,17.00
2019-04-16T00:31:37.041Z,16.17
2019-04-16T00:34:05.686Z,16.93
2019-04-16T00:36:33.706Z,16.47
2019-04-16T00:39:01.635Z,16.17
2019-04-16T00:41:31.329Z,15.77
2019-04-16T00:43:59.537Z,15.60
2019-04-16T00:46:27.683Z,16.27
2019-04-16T00:48:55.731Z,15.47
2019-04-16T00:51:23.953Z,14.90
2019-04-16T00:53:51.937Z,15.63
2019-04-16T00:56:20.055Z,15.57
2019-04-16T00:58:49.399Z,15.83
2019-04-16T01:01:18.250Z,14.97
2019-04-16T01:03:46.304Z,14.93
2019-04-16T01:06:14.469Z,15.90
2019-04-16T01:08:53.968Z,15.27
2019-04-16T01:11:14.347Z,14.10
2019-04-16T01:13:44.532Z,15.83
2019-04-16T01:16:12.578Z,16.30
2019-04-16T01:18:40.576Z,14.87
2019-04-16T01:21:13.730Z,15.00
2019-04-16T01:23:39.683Z,15.50
2019-04-16T01:26:07.838Z,16.10
2019-04-16T01:28:40.297Z,16.67
2019-04-16T01:31:27.216Z,15.23
2019-04-16T01:34:20.324Z,15.80
2019-04-16T01:37:08.163Z,16.47
2019-04-16T01:39:36.585Z,14.70
2019-04-16T01:42:06.331Z,15.97
2019-04-16T01:44:34.339Z,15.33
2019-04-16T01:47:04.175Z,16.60
2019-04-16T01:49:32.434Z,16.00
2019-04-16T01:52:00.632Z,15.53
2019-04-16T01:54:29.003Z,16.40
2019-04-16T01:57:00.056Z,15.17
2019-04-16T01:59:27.260Z,15.77
2019-04-16T02:01:55.176Z,15.07
2019-04-16T02:04:23.249Z,16.63
2019-04-16T02:06:51.429Z,16.57
2019-04-16T02:09:22.760Z,16.50
2019-04-16T02:11:49.862Z,15.03
2019-04-16T02:14:21.940Z,16.70
2019-04-16T02:16:47.769Z,16.33
2019-04-16T02:19:16.080Z,16.50
2019-04-16T02:21:44.620Z,16.77
2019-04-16T02:24:13.644Z,15.73
2019-04-16T02:26:41.480Z,15.60
2019-04-16T02:29:09.633Z,16.30
2019-04-16T02:31:37.829Z,14.77
2019-04-16T02:34:05.964Z,15.50
2019-04-16T02:36:34.297Z,15.87
2019-04-16T02:39:02.643Z,15.77
2019-04-16T02:41:32.586Z,16.63
2019-04-16T02:44:00.895Z,16.07
2019-04-16T02:46:32.360Z,15.63
2019-04-16T02:48:58.876Z,16.00
2019-04-16T02:51:45.279Z,16.60
2019-04-16T02:54:21.600Z,16.30
2019-04-16T02:57:15.143Z,16.20
2019-04-16T02:59:47.354Z,16.27
2019-04-16T03:02:38.169Z,16.57
2019-04-16T03:05:11.360Z,16.00
2019-04-16T03:07:39.554Z,16.13
2019-04-16T03:10:12.015Z,16.10
2019-04-16T03:12:37.020Z,16.23
2019-04-16T03:15:05.044Z,16.17
2019-04-16T03:17:35.914Z,16.40
2019-04-16T03:20:04.981Z,16.03
2019-04-16T03:22:33.502Z,17.00
2019-04-16T03:25:02.067Z,15.87
2019-04-16T03:27:29.689Z,16.77
2019-04-16T03:30:02.870Z,15.80
2019-04-16T03:32:33.648Z,16.67
2019-04-16T03:34:56.388Z,16.37
2019-04-16T03:37:24.160Z,15.93
2019-04-16T03:39:51.735Z,15.60
2019-04-16T03:42:19.454Z,16.17
2019-04-16T03:44:47.187Z,15.97
2019-04-16T03:47:15.692Z,15.87
2019-04-16T03:49:44.575Z,16.07
2019-04-16T03:52:12.301Z,16.10
2019-04-16T03:54:40.053Z,16.40
2019-04-16T03:57:07.800Z,16.00
2019-04-16T03:59:35.509Z,16.43
2019-04-16T04:02:03.196Z,15.57
2019-04-16T04:04:30.852Z,16.20
2019-04-16T04:06:58.555Z,16.00
2019-04-16T04:09:26.212Z,16.63
2019-04-16T04:11:53.928Z,15.77
2019-04-16T04:14:23.458Z,17.63
2019-04-16T04:16:51.598Z,16.30
2019-04-16T04:19:19.276Z,16.37
2019-04-16T04:21:47.004Z,19.20
2019-04-16T04:24:14.671Z,18.57
2019-04-16T04:26:42.479Z,17.43
2019-04-16T04:29:10.352Z,17.67
2019-04-16T04:31:39.520Z,17.77
2019-04-16T04:34:09.983Z,17.13
2019-04-16T04:36:37.654Z,18.03
2019-04-16T04:39:08.995Z,18.67
2019-04-16T04:41:35.839Z,18.40
2019-04-16T04:44:05.240Z,18.17
2019-04-16T04:46:33.220Z,18.50
2019-04-16T04:49:01.564Z,21.60
2019-04-16T04:51:29.801Z,19.73
2019-04-16T04:53:58.026Z,18.77
2019-04-16T04:56:27.959Z,18.83
2019-04-16T04:58:56.079Z,19.40
2019-04-16T05:01:23.866Z,19.23
2019-04-16T05:04:27.127Z,19.87
2019-04-16T05:06:58.216Z,19.03
2019-04-16T05:09:29.245Z,19.73
2019-04-16T05:11:56.450Z,20.17
2019-04-16T05:14:25.943Z,20.83
2019-04-16T05:16:54.042Z,20.20
2019-04-16T05:19:22.221Z,18.43
2019-04-16T05:21:50.869Z,20.20
2019-04-16T05:24:19.404Z,19.47
2019-04-16T05:26:47.413Z,19.87
2019-04-16T05:29:17.476Z,20.03
2019-04-16T05:31:45.394Z,18.70
2019-04-16T05:34:13.446Z,17.83
2019-04-16T05:36:46.245Z,18.80
2019-04-16T05:39:11.385Z,18.23
2019-04-16T05:41:39.069Z,18.87
2019-04-16T05:44:06.951Z,18.50
2019-04-16T05:46:34.691Z,17.50
2019-04-16T05:49:02.455Z,18.13
2019-04-16T05:51:31.436Z,16.37
2019-04-16T05:54:08.427Z,17.57
2019-04-16T05:56:39.974Z,15.93
2019-04-16T05:59:07.717Z,16.03
2019-04-16T06:01:42.448Z,17.53
2019-04-16T06:04:11.555Z,17.43
2019-04-16T06:06:39.264Z,16.40
2019-04-16T06:09:11.860Z,16.70
2019-04-16T06:11:38.214Z,16.73
2019-04-16T06:14:27.383Z,16.43
2019-04-16T06:17:25.907Z,15.30
2019-04-16T06:20:21.407Z,15.50
2019-04-16T06:23:21.404Z,15.03
2019-04-16T06:26:00.416Z,16.70
2019-04-16T06:28:46.018Z,15.33
2019-04-16T06:31:33.246Z,15.53
2019-04-16T06:34:35.573Z,14.63
2019-04-16T06:37:11.592Z,15.03
2019-04-16T06:40:01.049Z,14.30
2019-04-16T06:42:31.220Z,15.17
2019-04-16T06:45:01.624Z,14.73
2019-04-16T06:47:52.991Z,14.07
2019-04-16T06:50:42.622Z,13.97
2019-04-16T06:53:30.749Z,14.07
2019-04-16T06:56:19.931Z,14.03
2019-04-16T06:59:08.637Z,13.90
2019-04-16T07:01:53.345Z,13.73
2019-04-16T07:04:40.568Z,12.80
2019-04-16T07:07:38.546Z,13.30
2019-04-16T07:10:16.823Z,13.33
2019-04-16T07:12:44.471Z,12.10
2019-04-16T07:15:12.577Z,14.07
2019-04-16T07:17:40.685Z,12.87
2019-04-16T07:20:13.190Z,12.80
2019-04-16T07:22:37.987Z,12.60
2019-04-16T07:25:06.520Z,13.50
2019-04-16T07:27:52.729Z,13.63
2019-04-16T07:30:38.409Z,12.50
2019-04-16T07:33:22.601Z,12.77
2019-04-16T07:36:06.317Z,13.17
2019-04-16T07:38:42.247Z,12.93
2019-04-16T07:41:44.656Z,12.33
2019-04-16T07:44:16.794Z,12.83
2019-04-16T07:47:19.642Z,13.77
2019-04-16T07:50:01.686Z,14.97
2019-04-16T07:52:38.990Z,15.07
2019-04-16T07:55:26.739Z,15.10
2019-04-16T07:57:53.642Z,14.57
2019-04-16T08:00:21.458Z,15.70
2019-04-16T08:02:50.779Z,16.30
2019-04-16T08:05:18.760Z,16.55
2019-04-16T08:07:46.561Z,15.85
2019-04-16T08:10:16.742Z,17.67
2019-04-16T08:12:50.494Z,15.67
2019-04-16T08:15:18.199Z,15.97
2019-04-16T08:17:45.876Z,15.93
2019-04-16T08:20:13.495Z,16.93
2019-04-16T08:22:41.191Z,16.50
2019-04-16T08:25:08.929Z,15.57
2019-04-16T08:27:36.533Z,16.15
2019-04-16T08:30:07.147Z,15.83
2019-04-16T08:32:34.878Z,16.52
2019-04-16T08:35:02.461Z,16.48
2019-04-16T08:37:31.050Z,16.60
2019-04-16T08:39:58.725Z,15.53
2019-04-16T08:42:29.332Z,16.00
2019-04-16T08:44:55.804Z,16.55
2019-04-16T08:47:24.641Z,16.25
2019-04-16T08:49:54.111Z,16.00
2019-04-16T08:52:21.670Z,16.15
2019-04-16T08:54:50.387Z,16.15
2019-04-16T08:57:18.763Z,16.00
2019-04-16T08:59:46.333Z,16.15
2019-04-16T09:02:13.970Z,16.00
2019-04-16T09:04:41.601Z,16.65
2019-04-16T09:07:21.264Z,16.95
2019-04-16T09:09:51.377Z,16.00
2019-04-16T09:12:19.014Z,16.77
2019-04-16T09:14:51.567Z,16.93
2019-04-16T09:17:28.018Z,16.17
2019-04-16T09:20:01.764Z,17.42
2019-04-16T09:22:29.685Z,17.62
2019-04-16T09:25:13.846Z,17.05
2019-04-16T09:27:42.593Z,16.82
2019-04-16T09:30:32.924Z,16.73
2019-04-16T09:33:23.804Z,16.52
2019-04-16T09:36:09.628Z,16.35
2019-04-16T09:38:46.500Z,17.17
2019-04-16T09:41:33.886Z,17.90
2019-04-16T09:44:01.855Z,17.60
2019-04-16T09:46:49.763Z,17.30
2019-04-16T09:48:59.416Z,16.97
2019-04-16T09:51:27.728Z,17.02
2019-04-16T09:53:55.343Z,16.05
2019-04-16T09:56:29.033Z,17.07
2019-04-16T09:58:59.214Z,15.45
2019-04-16T10:01:31.520Z,16.95
2019-04-16T10:03:59.073Z,17.90
2019-04-16T10:06:26.788Z,17.80
2019-04-16T10:08:56.732Z,17.60
2019-04-16T10:11:23.889Z,17.27
2019-04-16T10:13:51.533Z,18.10
2019-04-16T10:16:21.279Z,16.65
2019-04-16T10:18:48.924Z,15.95
2019-04-16T10:21:19.682Z,17.87
2019-04-16T10:24:13.067Z,16.60
2019-04-16T10:26:40.439Z,16.45
2019-04-16T10:29:11.831Z,16.42
2019-04-16T10:31:39.479Z,17.40
2019-04-16T10:34:07.140Z,16.95
2019-04-16T10:36:38.012Z,17.48
2019-04-16T10:39:15.050Z,16.87
2019-04-16T10:41:50.701Z,16.57
2019-04-16T10:44:37.830Z,16.45
2019-04-16T10:47:31.033Z,15.98
2019-04-16T10:50:36.103Z,16.45
2019-04-16T10:53:20.577Z,15.63
2019-04-16T10:56:22.809Z,17.40
2019-04-16T10:59:12.923Z,16.75
2019-04-16T11:02:10.638Z,16.42
2019-04-16T11:05:19.291Z,16.60
2019-04-16T11:07:46.271Z,15.03
2019-04-16T11:10:14.062Z,16.23
2019-04-16T11:12:41.629Z,15.93
2019-04-16T11:15:11.604Z,14.53
2019-04-16T11:17:39.369Z,14.58
2019-04-16T11:20:07.351Z,16.20
2019-04-16T11:22:35.381Z,16.15
2019-04-16T11:25:03.408Z,15.83
2019-04-16T11:27:32.261Z,15.00
2019-04-16T11:30:00.418Z,15.38
2019-04-16T11:32:29.990Z,15.58
2019-04-16T11:34:58.344Z,16.07
2019-04-16T11:37:27.532Z,15.30
2019-04-16T11:39:55.693Z,13.98
2019-04-16T11:42:23.906Z,14.90
2019-04-16T11:44:51.618Z,13.15
2019-04-16T11:47:19.299Z,14.30
2019-04-16T11:49:46.983Z,12.93
2019-04-16T11:52:15.919Z,13.03
2019-04-16T11:54:46.801Z,13.43
2019-04-16T11:57:13.962Z,13.70
2019-04-16T11:59:41.756Z,14.68
2019-04-16T12:02:18.404Z,14.23
2019-04-16T12:04:59.356Z,13.88
2019-04-16T12:07:47.113Z,14.15
2019-04-16T12:10:33.620Z,14.15
2019-04-16T12:13:26.332Z,14.07
2019-04-16T12:16:13.550Z,13.98
2019-04-16T12:19:12.611Z,13.00
2019-04-16T12:22:05.919Z,13.98
2019-04-16T12:25:05.213Z,12.68
2019-04-16T12:28:12.484Z,12.70
2019-04-16T12:31:02.562Z,13.65
2019-04-16T12:33:49.795Z,12.60
2019-04-16T12:36:52.045Z,12.70
2019-04-16T12:39:37.460Z,13.18
2019-04-16T12:42:27.973Z,12.65
2019-04-16T12:45:13.721Z,13.50
2019-04-16T12:47:48.505Z,12.50
2019-04-16T12:50:35.788Z,13.22
2019-04-16T12:53:12.954Z,12.45
2019-04-16T12:56:06.029Z,13.15
2019-04-16T12:58:55.028Z,13.68
2019-04-16T13:01:54.190Z,13.68
2019-04-16T13:04:39.965Z,13.13
2019-04-16T13:07:30.140Z,13.20
2019-04-16T13:10:08.943Z,12.33
2019-04-16T13:12:58.310Z,13.70
2019-04-16T13:15:48.306Z,12.70
2019-04-16T13:18:35.865Z,13.28
2019-04-16T13:21:20.432Z,13.22
2019-04-16T13:24:01.040Z,13.40
2019-04-16T13:26:34.081Z,12.40
2019-04-16T13:29:05.324Z,13.45
2019-04-16T13:31:33.036Z,12.95
2019-04-16T13:34:00.731Z,12.30
2019-04-16T13:36:28.501Z,12.80
2019-04-16T13:39:04.938Z,12.60
2019-04-16T13:41:32.953Z,12.75
2019-04-16T13:44:07.939Z,13.38
2019-04-16T13:46:34.837Z,12.98
2019-04-16T13:49:32.276Z,12.15
2019-04-16T13:52:00.614Z,12.80
2019-04-16T13:54:39.561Z,12.50
2019-04-16T13:57:11.419Z,12.03
2019-04-16T14:00:03.028Z,12.63
2019-04-16T14:02:47.801Z,12.43
2019-04-16T14:05:15.528Z,12.93
2019-04-16T14:07:43.255Z,12.60
2019-04-16T14:10:11.612Z,12.93
2019-04-16T14:12:42.139Z,11.48
2019-04-16T14:15:09.536Z,12.95
2019-04-16T14:17:51.792Z,12.55
2019-04-16T14:20:08.583Z,12.53
2019-04-16T14:22:37.250Z,12.17
2019-04-16T14:25:05.234Z,11.33
2019-04-16T14:27:32.975Z,12.00
2019-04-16T14:30:00.826Z,10.93
2019-04-16T14:32:28.488Z,10.70
2019-04-16T14:35:00.819Z,11.40
2019-04-16T14:37:29.666Z,12.33
2019-04-16T14:40:05.888Z,11.40
2019-04-16T14:42:33.551Z,11.77
2019-04-16T14:45:11.536Z,10.30
2019-04-16T14:47:40.187Z,12.20
2019-04-16T14:50:07.718Z,10.60
2019-04-16T14:52:35.481Z,10.50
2019-04-16T14:55:12.798Z,10.70
2019-04-16T14:57:58.754Z,11.57
2019-04-16T15:00:44.890Z,10.60
2019-04-16T15:03:32.170Z,10.40
2019-04-16T15:06:12.114Z,10.60
2019-04-16T15:08:57.945Z,11.03
2019-04-16T15:11:51.050Z,10.80
2019-04-16T15:14:32.870Z,10.47
2019-04-16T15:17:12.187Z,10.13
2019-04-16T15:20:01.375Z,10.23
2019-04-16T15:23:05.120Z,11.83
2019-04-16T15:25:53.532Z,11.30
2019-04-16T15:28:29.406Z,10.27
2019-04-16T15:31:02.668Z,10.57
2019-04-16T15:33:55.752Z,11.20
2019-04-16T15:36:50.539Z,9.90
2019-04-16T15:39:35.379Z,10.53
2019-04-16T15:42:28.951Z,10.63
2019-04-16T15:45:03.425Z,11.07
2019-04-16T15:47:49.365Z,10.80
2019-04-16T15:50:25.797Z,10.63
2019-04-16T15:52:59.275Z,11.03
2019-04-16T15:55:46.500Z,10.43
2019-04-16T15:58:32.738Z,9.90
2019-04-16T16:01:19.958Z,10.90
2019-04-16T16:04:05.497Z,10.73
2019-04-16T16:06:33.378Z,9.70
2019-04-16T16:09:20.444Z,9.33
2019-04-16T16:12:10.613Z,9.53
2019-04-16T16:14:39.158Z,9.53
2019-04-16T16:17:07.110Z,9.73
2019-04-16T16:19:34.714Z,9.93
2019-04-16T16:22:02.478Z,9.67
2019-04-16T16:24:30.105Z,9.87
2019-04-16T16:26:57.701Z,9.90
2019-04-16T16:29:25.224Z,9.13
2019-04-16T16:31:52.831Z,9.33
2019-04-16T16:34:20.446Z,9.57
2019-04-16T16:36:48.152Z,9.57
2019-04-16T16:39:15.695Z,9.73
2019-04-16T16:41:46.706Z,9.23
2019-04-16T16:44:14.471Z,9.57
2019-04-16T16:46:57.198Z,9.50
2019-04-16T16:49:24.391Z,9.17
2019-04-16T16:52:29.581Z,9.80
2019-04-16T16:54:59.265Z,10.13
2019-04-16T16:57:35.878Z,9.93
2019-04-16T17:00:27.401Z,9.30
2019-04-16T17:03:20.381Z,9.73
2019-04-16T17:05:48.409Z,10.03
2019-04-16T17:08:16.115Z,10.20
2019-04-16T17:10:43.675Z,10.13
2019-04-16T17:13:14.640Z,10.17
2019-04-16T17:15:41.945Z,9.80
2019-04-16T17:18:09.659Z,12.33
2019-04-16T17:20:38.342Z,10.63
2019-04-16T17:23:07.252Z,10.53
2019-04-16T17:25:36.806Z,9.63
2019-04-16T17:28:04.865Z,10.03
2019-04-16T17:30:32.539Z,11.00
2019-04-16T17:33:00.073Z,9.67
2019-04-16T17:35:27.626Z,11.17
2019-04-16T17:37:55.396Z,11.23
2019-04-16T17:41:00.683Z,10.30
2019-04-16T17:43:37.003Z,9.73
2019-04-16T17:46:27.113Z,10.27
2019-04-16T17:49:14.268Z,9.00
2019-04-16T17:52:13.599Z,9.43
2019-04-16T17:55:00.727Z,9.13
2019-04-16T17:57:46.785Z,8.77
2019-04-16T18:00:34.651Z,8.97
2019-04-16T18:03:16.477Z,8.27
2019-04-16T18:05:50.995Z,9.00
2019-04-16T18:08:44.448Z,8.90
2019-04-16T18:11:15.628Z,9.10
2019-04-16T18:14:06.676Z,9.40
2019-04-16T18:16:40.895Z,9.10
2019-04-16T18:19:28.726Z,8.97
2019-04-16T18:22:21.694Z,9.17
2019-04-16T18:25:11.645Z,9.30
2019-04-16T18:27:44.181Z,9.30
2019-04-16T18:30:46.200Z,9.67
2019-04-16T18:33:20.859Z,10.40
2019-04-16T18:36:16.561Z,9.47
2019-04-16T18:39:05.107Z,10.23
2019-04-16T18:41:44.232Z,10.23
2019-04-16T18:44:31.288Z,9.30
2019-04-16T18:47:27.686Z,10.80
2019-04-16T18:49:57.728Z,10.27
2019-04-16T18:52:25.528Z,10.50
2019-04-16T18:54:53.168Z,10.93
2019-04-16T18:57:20.997Z,11.50
2019-04-16T18:59:48.656Z,11.37
2019-04-16T19:02:16.400Z,12.23
2019-04-16T19:04:44.045Z,11.73
2019-04-16T19:07:11.722Z,10.87
2019-04-16T19:09:39.300Z,11.73
2019-04-16T19:12:07.165Z,12.00
2019-04-16T19:14:36.702Z,11.20
2019-04-16T19:17:04.804Z,11.17
2019-04-16T19:19:32.381Z,10.37
2019-04-16T19:22:00.116Z,11.97
2019-04-16T19:24:27.732Z,12.37
2019-04-16T19:26:55.353Z,10.10
2019-04-16T19:29:23.251Z,11.20
2019-04-16T19:31:54.778Z,10.90
2019-04-16T19:34:20.423Z,12.73
2019-04-16T19:36:48.106Z,12.63
2019-04-16T19:39:15.775Z,13.70
2019-04-16T19:41:43.515Z,11.90
2019-04-16T19:44:11.199Z,12.73
2019-04-16T19:46:38.928Z,14.23
2019-04-16T19:49:06.685Z,13.73
2019-04-16T19:51:34.405Z,13.63
2019-04-16T19:54:02.077Z,14.97
2019-04-16T19:56:33.270Z,12.27
2019-04-16T19:58:59.588Z,11.93
2019-04-16T20:01:27.590Z,13.30
2019-04-16T20:03:55.614Z,12.97
2019-04-16T20:06:26.166Z,13.10
2019-04-16T20:08:53.732Z,13.97
2019-04-16T20:11:23.015Z,14.23
2019-04-16T20:13:50.598Z,14.43
2019-04-16T20:16:18.421Z,14.27
2019-04-16T20:18:51.151Z,13.37
2019-04-16T20:21:15.771Z,16.33
2019-04-16T20:23:43.366Z,16.13
2019-04-16T20:26:11.099Z,17.03
2019-04-16T20:28:38.721Z,16.33
2019-04-16T20:31:07.672Z,14.87
2019-04-16T20:33:35.303Z,15.63
2019-04-16T20:36:03.116Z,16.87
2019-04-16T20:38:31.015Z,19.33
2019-04-16T20:40:58.761Z,18.93
2019-04-16T20:43:26.455Z,17.27
2019-04-16T20:45:54.343Z,17.50
2019-04-16T20:48:21.989Z,17.17
2019-04-16T20:50:52.676Z,17.30
2019-04-16T20:53:19.276Z,15.40
2019-04-16T20:55:48.162Z,16.03
2019-04-16T20:58:15.811Z,14.70
2019-04-16T21:00:45.977Z,14.37
2019-04-16T21:03:21.936Z,13.93
2019-04-16T21:05:57.448Z,14.83
2019-04-16T21:08:12.722Z,14.27
2019-04-16T21:10:40.423Z,16.00
2019-04-16T21:13:08.072Z,15.40
2019-04-16T21:15:35.718Z,15.43
2019-04-16T21:18:03.788Z,14.43
2019-04-16T21:20:31.606Z,14.73
2019-04-16T21:23:01.875Z,14.13
2019-04-16T21:25:28.741Z,15.00
2019-04-16T21:28:07.549Z,15.00
2019-04-16T21:30:35.607Z,14.13
2019-04-16T21:33:21.156Z,15.00
2019-04-16T21:35:51.476Z,13.50
2019-04-16T21:38:25.670Z,14.60
2019-04-16T21:40:56.354Z,13.83
2019-04-16T21:43:22.865Z,14.43
2019-04-16T21:45:50.566Z,14.93
2019-04-16T21:48:18.073Z,14.70
2019-04-16T21:50:47.592Z,14.27
2019-04-16T21:53:15.343Z,15.07
2019-04-16T21:55:43.060Z,14.53
2019-04-16T21:58:14.541Z,15.40
2019-04-16T22:00:59.759Z,14.30
2019-04-16T22:03:29.946Z,14.97
2019-04-16T22:05:57.994Z,14.47
2019-04-16T22:08:29.390Z,14.50
2019-04-16T22:10:55.963Z,15.77
2019-04-16T22:13:23.689Z,15.10
2019-04-16T22:15:53.767Z,15.20
2019-04-16T22:18:22.333Z,15.67
2019-04-16T22:20:49.889Z,15.10
2019-04-16T22:23:19.338Z,15.10
2019-04-16T22:25:46.924Z,15.17
2019-04-16T22:28:14.704Z,14.07
2019-04-16T22:30:43.527Z,15.20
2019-04-16T22:33:11.280Z,15.43
2019-04-16T22:35:39.014Z,14.47
2019-04-16T22:38:06.769Z,15.33
2019-04-16T22:40:54.957Z,15.43
2019-04-16T22:43:57.256Z,16.30
2019-04-16T22:46:38.043Z,15.53
2019-04-16T22:49:06.119Z,15.83
2019-04-16T22:51:34.160Z,15.10
2019-04-16T22:54:02.083Z,15.63
2019-04-16T22:56:40.646Z,15.70
2019-04-16T22:59:08.805Z,15.77
2019-04-16T23:01:37.601Z,16.27
2019-04-16T23:04:05.291Z,15.33
2019-04-16T23:06:37.798Z,15.57
2019-04-16T23:09:02.837Z,15.87
2019-04-16T23:11:32.204Z,16.37
2019-04-16T23:14:02.495Z,16.23
2019-04-16T23:16:29.427Z,14.77
2019-04-16T23:18:57.258Z,16.33
2019-04-16T23:21:24.845Z,16.03
2019-04-16T23:23:52.528Z,16.50
2019-04-16T23:26:20.282Z,17.00
2019-04-16T23:28:48.051Z,16.53
2019-04-16T23:31:15.686Z,15.70
2019-04-16T23:33:43.576Z,16.63
2019-04-16T23:36:16.542Z,15.73
2019-04-16T23:38:42.527Z,16.23
2019-04-16T23:41:15.341Z,15.83
2019-04-16T23:44:00.228Z,16.43
2019-04-16T23:46:47.390Z,16.63
2019-04-16T23:49:43.692Z,17.13
2019-04-16T23:52:15.803Z,16.77
2019-04-16T23:54:52.696Z,17.60
2019-04-16T23:57:49.078Z,16.87
